Time;durP1;ratioP1;P1;durP2;ratioP2;P2;SDS_P1;SDS_P2;PMS_P1;PMS_P2;Temp;Humidity;BMP_temperature;BMP_pressure;BME280_temperature;BME280_humidity;BME280_pressure;Samples;Min_cycle;Max_cycle;Signal;HPM_P1;HPM_P2
2022/09/25 00:01:36;;;;;;;;;;;12.80;99.90;;;;;;5073077;28;19916;-65
2022/09/25 00:04:01;;;;;;;;;;;12.80;99.90;;;;;;5073035;28;19908;-63
2022/09/25 00:06:27;;;;;;;;;;;12.80;99.90;;;;;;5073261;28;19909;-63
2022/09/25 00:08:53;;;;;;;;;;;12.80;99.90;;;;;;5073058;28;20534;-63
2022/09/25 00:11:20;;;;;;;;;;;12.80;99.90;;;;;;5072929;28;19918;-63
2022/09/25 00:13:46;;;;;;;;;;;12.80;99.90;;;;;;5073221;28;20379;-63
2022/09/25 00:16:13;;;;;;;;;;;12.70;99.90;;;;;;5073177;28;19908;-63
2022/09/25 00:21:30;;;;;;;;;;;12.70;99.90;;;;;;5076283;28;20008;-63
2022/09/25 00:23:56;;;;;;;;;;;12.70;99.90;;;;;;5076665;28;20023;-63
2022/09/25 00:26:22;;;;;;;;;;;12.70;99.90;;;;;;5076627;28;19913;-63
2022/09/25 00:28:47;;;;;;;;;;;12.70;99.90;;;;;;5076326;28;20007;-63
2022/09/25 00:31:18;;;;;;;;;;;12.70;99.90;;;;;;5076207;28;19913;-63
2022/09/25 00:33:44;;;;;;;;;;;12.70;99.90;;;;;;5076293;28;20398;-63
2022/09/25 00:36:09;;;;;;;;;;;12.70;99.90;;;;;;5076276;28;19953;-63
2022/09/25 00:38:36;;;;;;;;;;;12.70;99.90;;;;;;5076356;28;19962;-63
2022/09/25 00:41:02;;;;;;;;;;;12.70;99.90;;;;;;5058281;28;19919;-63
2022/09/25 00:43:36;;;;;;;;;;;12.70;99.90;;;;;;5076092;28;20290;-63
2022/09/25 00:46:04;;;;;;;;;;;12.70;99.90;;;;;;5076017;28;19909;-63
2022/09/25 00:48:29;;;;;;;;;;;12.70;99.90;;;;;;5076030;28;19916;-63
2022/09/25 00:50:56;;;;;;;;;;;12.70;99.90;;;;;;5076138;28;19917;-63
2022/09/25 00:53:31;;;;;;;;;;;12.70;99.90;;;;;;5076168;28;20384;-63
2022/09/25 00:55:58;;;;;;;;;;;12.70;99.90;;;;;;5075834;28;19908;-63
2022/09/25 00:58:24;;;;;;;;;;;12.60;99.90;;;;;;5075803;28;19909;-63
2022/09/25 01:00:50;;;;;;;;;;;12.60;99.90;;;;;;5076035;28;19908;-63
2022/09/25 01:03:16;;;;;;;;;;;12.60;99.90;;;;;;5075723;28;20396;-63
2022/09/25 01:05:43;;;;;;;;;;;12.60;99.90;;;;;;5075692;28;19912;-63
2022/09/25 01:08:11;;;;;;;;;;;12.50;99.90;;;;;;5075641;28;19908;-63
2022/09/25 01:10:36;;;;;;;;;;;12.60;99.90;;;;;;5075363;28;19927;-63
2022/09/25 01:13:02;;;;;;;;;;;12.60;99.90;;;;;;5075538;28;20367;-63
2022/09/25 01:15:38;;;;;;;;;;;12.60;99.90;;;;;;5075465;28;19955;-63
2022/09/25 01:18:10;;;;;;;;;;;12.60;99.90;;;;;;5075699;28;20386;-63
2022/09/25 01:20:55;;;;;;;;;;;12.60;99.90;;;;;;5075397;28;19908;-63
2022/09/25 01:23:30;;;;;;;;;;;12.60;99.90;;;;;;5075580;28;20390;-63
2022/09/25 01:26:16;;;;;;;;;;;12.60;99.90;;;;;;5075515;28;19919;-63
2022/09/25 01:29:01;;;;;;;;;;;12.60;99.90;;;;;;5075091;28;19913;-63
2022/09/25 01:31:46;;;;;;;;;;;12.50;99.90;;;;;;5074929;28;20007;-63
2022/09/25 01:36:56;;;;;;;;;;;12.50;99.90;;;;;;5070972;28;19913;-63
2022/09/25 01:39:27;;;;;;;;;;;12.60;99.90;;;;;;5086629;28;19913;-63
2022/09/25 01:41:56;;;;;;;;;;;12.50;99.90;;;;;;5071140;28;20325;-63
2022/09/25 01:44:30;;;;;;;;;;;12.60;99.90;;;;;;5071112;28;19912;-63
2022/09/25 01:47:03;;;;;;;;;;;12.60;99.90;;;;;;5071055;28;19915;-63
2022/09/25 01:49:31;;;;;;;;;;;12.60;99.90;;;;;;5070985;28;20008;-63
2022/09/25 01:51:57;;;;;;;;;;;12.50;99.90;;;;;;5070950;28;20306;-63
2022/09/25 01:54:25;;;;;;;;;;;12.50;99.90;;;;;;5070852;28;19908;-63
2022/09/25 01:57:11;;;;;;;;;;;12.50;99.90;;;;;;5070615;28;19920;-63
2022/09/25 01:59:39;;;;;;;;;;;12.50;99.90;;;;;;5070493;28;19958;-63
2022/09/25 02:02:07;;;;;;;;;;;12.50;99.90;;;;;;5070467;28;19916;-64
2022/09/25 02:04:36;;;;;;;;;;;12.40;99.90;;;;;;5070716;28;19944;-63
2022/09/25 02:07:04;;;;;;;;;;;12.40;99.90;;;;;;5070713;28;20371;-63
2022/09/25 02:09:32;;;;;;;;;;;12.40;99.90;;;;;;5070614;28;20046;-63
2022/09/25 02:12:00;;;;;;;;;;;12.40;99.90;;;;;;5070291;28;19909;-63
2022/09/25 02:14:30;;;;;;;;;;;12.30;99.90;;;;;;5070169;28;19948;-63
2022/09/25 02:16:57;;;;;;;;;;;12.30;99.90;;;;;;5070196;28;19999;-63
2022/09/25 02:22:11;;;;;;;;;;;12.30;99.90;;;;;;5069917;28;19909;-63
2022/09/25 02:24:57;;;;;;;;;;;12.30;99.90;;;;;;5070014;28;19909;-64
2022/09/25 02:27:24;;;;;;;;;;;12.30;99.90;;;;;;5069923;28;19915;-64
2022/09/25 02:29:51;;;;;;;;;;;12.30;99.90;;;;;;5069942;28;19909;-63
2022/09/25 02:32:18;;;;;;;;;;;12.30;99.90;;;;;;5070156;28;19916;-63
2022/09/25 02:34:44;;;;;;;;;;;12.20;99.90;;;;;;5088408;28;19967;-64
2022/09/25 02:37:11;;;;;;;;;;;12.20;99.90;;;;;;5090361;28;19915;-64
2022/09/25 02:39:37;;;;;;;;;;;12.20;99.90;;;;;;5090258;28;19909;-64
2022/09/25 02:42:22;;;;;;;;;;;12.20;99.90;;;;;;5089998;28;19915;-64
2022/09/25 02:45:08;;;;;;;;;;;12.20;99.90;;;;;;5089785;28;19908;-63
2022/09/25 02:47:37;;;;;;;;;;;12.10;99.90;;;;;;5079718;28;19915;-63
2022/09/25 02:50:12;;;;;;;;;;;12.10;99.90;;;;;;5076316;28;19916;-64
2022/09/25 02:52:57;;;;;;;;;;;12.10;99.90;;;;;;5076315;28;20291;-63
2022/09/25 02:55:40;;;;;;;;;;;12.00;99.90;;;;;;5075924;28;19916;-63
2022/09/25 03:00:48;;;;;;;;;;;12.00;99.90;;;;;;5071042;28;19919;-63
2022/09/25 03:03:15;;;;;;;;;;;12.00;99.90;;;;;;5071265;28;19955;-63
2022/09/25 03:05:41;;;;;;;;;;;12.00;99.90;;;;;;5071137;28;20260;-63
2022/09/25 03:08:38;;;;;;;;;;;11.90;99.90;;;;;;5071095;28;19915;-63
2022/09/25 03:10:52;;;;;;;;;;;12.00;99.90;;;;;;5070695;28;19916;-63
2022/09/25 03:13:20;;;;;;;;;;;11.90;99.90;;;;;;5071011;28;19913;-63
2022/09/25 03:15:49;;;;;;;;;;;11.90;99.90;;;;;;5069503;28;19948;-63
2022/09/25 03:18:15;;;;;;;;;;;12.00;99.90;;;;;;5070634;28;19946;-63
2022/09/25 03:20:41;;;;;;;;;;;11.90;99.90;;;;;;5070774;28;19974;-63
2022/09/25 03:23:07;;;;;;;;;;;12.00;99.90;;;;;;5070784;28;19991;-63
2022/09/25 03:25:32;;;;;;;;;;;11.90;99.90;;;;;;5070498;28;20008;-63
2022/09/25 03:27:57;;;;;;;;;;;11.90;99.90;;;;;;5070689;28;19912;-63
2022/09/25 03:30:23;;;;;;;;;;;11.90;99.90;;;;;;5070439;28;19955;-63
2022/09/25 03:32:49;;;;;;;;;;;11.90;99.90;;;;;;5070346;28;19908;-63
2022/09/25 03:35:14;;;;;;;;;;;11.90;99.90;;;;;;5070560;28;19909;-63
2022/09/25 03:37:39;;;;;;;;;;;11.90;99.90;;;;;;5070220;28;19909;-63
2022/09/25 03:40:05;;;;;;;;;;;11.80;99.90;;;;;;5085831;28;20059;-63
2022/09/25 03:42:31;;;;;;;;;;;11.80;99.90;;;;;;5070380;28;19916;-63
2022/09/25 03:44:56;;;;;;;;;;;11.80;99.90;;;;;;5070083;28;20359;-63
2022/09/25 03:47:22;;;;;;;;;;;11.80;99.90;;;;;;5070021;28;19931;-62
2022/09/25 03:49:47;;;;;;;;;;;11.80;99.90;;;;;;5070292;28;20007;-63
2022/09/25 03:52:13;;;;;;;;;;;11.80;99.90;;;;;;5069999;28;19909;-63
2022/09/25 03:54:39;;;;;;;;;;;11.80;99.90;;;;;;5069883;28;20275;-63
2022/09/25 03:57:04;;;;;;;;;;;11.70;99.90;;;;;;5069823;28;20000;-63
2022/09/25 03:59:30;;;;;;;;;;;11.70;99.90;;;;;;5079464;28;19966;-63
2022/09/25 04:01:55;;;;;;;;;;;11.70;99.90;;;;;;5090285;28;19954;-63
2022/09/25 04:04:21;;;;;;;;;;;11.60;99.90;;;;;;5089971;28;19955;-63
2022/09/25 04:06:47;;;;;;;;;;;11.70;99.90;;;;;;5090174;28;20367;-63
2022/09/25 04:09:12;;;;;;;;;;;11.60;99.90;;;;;;5090120;28;19909;-63
2022/09/25 04:11:38;;;;;;;;;;;11.60;99.90;;;;;;5079410;28;19912;-63
2022/09/25 04:14:03;;;;;;;;;;;11.60;99.90;;;;;;5076560;28;19958;-63
2022/09/25 04:16:30;;;;;;;;;;;11.60;99.90;;;;;;5076511;28;19931;-63
2022/09/25 04:18:55;;;;;;;;;;;11.60;99.90;;;;;;5076435;28;19912;-63
2022/09/25 04:21:21;;;;;;;;;;;11.60;99.90;;;;;;5076223;28;20267;-63
2022/09/25 04:24:47;;;;;;;;;;;11.60;99.90;;;;;;5076079;28;20018;-63
2022/09/25 04:26:32;;;;;;;;;;;11.60;99.90;;;;;;5075849;28;20267;-63
2022/09/25 04:29:00;;;;;;;;;;;11.60;99.90;;;;;;5076088;28;20014;-63
2022/09/25 04:31:26;;;;;;;;;;;11.60;99.90;;;;;;5076016;28;19970;-63
2022/09/25 04:33:52;;;;;;;;;;;11.60;99.90;;;;;;5075995;28;19955;-63
2022/09/25 04:36:18;;;;;;;;;;;11.50;99.90;;;;;;5075904;28;19913;-63
2022/09/25 04:38:44;;;;;;;;;;;11.50;99.90;;;;;;5076059;28;19916;-63
2022/09/25 04:41:10;;;;;;;;;;;11.50;99.90;;;;;;5076067;28;20328;-63
2022/09/25 04:43:35;;;;;;;;;;;11.40;99.90;;;;;;5076076;28;19955;-63
2022/09/25 04:46:05;;;;;;;;;;;11.40;99.90;;;;;;5057819;28;20286;-63
2022/09/25 04:48:31;;;;;;;;;;;11.40;99.90;;;;;;5075689;28;19946;-63
2022/09/25 04:50:57;;;;;;;;;;;11.40;99.90;;;;;;5075913;28;20313;-62
2022/09/25 04:53:23;;;;;;;;;;;11.40;99.90;;;;;;5075864;28;19909;-63
2022/09/25 04:55:48;;;;;;;;;;;11.30;99.90;;;;;;5075779;28;19946;-63
2022/09/25 04:58:14;;;;;;;;;;;11.30;99.90;;;;;;5075444;28;19912;-63
2022/09/25 05:00:41;;;;;;;;;;;11.30;99.90;;;;;;5075147;28;19927;-64
2022/09/25 05:03:06;;;;;;;;;;;11.30;99.90;;;;;;5075641;28;19915;-63
2022/09/25 05:05:32;;;;;;;;;;;11.20;99.90;;;;;;5075344;28;19909;-63
2022/09/25 05:07:58;;;;;;;;;;;11.20;99.90;;;;;;5075565;28;19912;-63
2022/09/25 05:10:26;;;;;;;;;;;11.10;99.90;;;;;;5075285;28;20397;-62
2022/09/25 05:12:53;;;;;;;;;;;11.10;99.90;;;;;;5075458;28;19909;-63
2022/09/25 05:15:19;;;;;;;;;;;11.00;99.90;;;;;;5075196;28;19999;-63
2022/09/25 05:17:44;;;;;;;;;;;11.00;99.90;;;;;;5075415;28;19909;-63
2022/09/25 05:20:10;;;;;;;;;;;11.00;99.90;;;;;;5074973;28;19919;-64
2022/09/25 05:22:35;;;;;;;;;;;10.90;99.90;;;;;;5074035;28;19962;-63
2022/09/25 05:25:01;;;;;;;;;;;10.90;99.90;;;;;;5074961;28;19916;-63
2022/09/25 05:27:26;;;;;;;;;;;10.90;99.90;;;;;;5074928;28;19983;-63
2022/09/25 05:29:52;;;;;;;;;;;10.90;99.90;;;;;;5075119;28;19909;-62
2022/09/25 05:32:18;;;;;;;;;;;10.90;99.90;;;;;;5075038;28;20286;-63
2022/09/25 05:34:43;;;;;;;;;;;10.80;99.90;;;;;;5075043;28;19908;-63
2022/09/25 05:37:09;;;;;;;;;;;10.80;99.90;;;;;;5074974;28;19909;-63
2022/09/25 05:39:34;;;;;;;;;;;10.80;99.90;;;;;;5074889;28;19922;-63
2022/09/25 05:42:01;;;;;;;;;;;10.90;99.90;;;;;;5074863;28;19909;-63
2022/09/25 05:44:27;;;;;;;;;;;10.90;99.90;;;;;;5074835;28;19931;-63
2022/09/25 05:46:55;;;;;;;;;;;10.80;99.90;;;;;;5074773;28;20022;-63
2022/09/25 05:49:21;;;;;;;;;;;10.80;99.90;;;;;;5074683;28;19946;-63
2022/09/25 05:51:47;;;;;;;;;;;10.80;99.90;;;;;;5074415;28;19912;-63
2022/09/25 05:54:12;;;;;;;;;;;10.80;99.90;;;;;;5074667;28;20306;-63
2022/09/25 05:56:38;;;;;;;;;;;10.80;99.90;;;;;;5074545;28;19919;-63
2022/09/25 05:59:03;;;;;;;;;;;10.80;99.90;;;;;;5056242;28;20446;-63
2022/09/25 06:01:29;;;;;;;;;;;10.80;99.90;;;;;;5074214;28;19931;-63
2022/09/25 06:03:54;;;;;;;;;;;10.70;99.90;;;;;;5074161;28;19931;-63
2022/09/25 06:06:20;;;;;;;;;;;10.70;99.90;;;;;;5074409;28;19915;-63
2022/09/25 06:08:46;;;;;;;;;;;10.70;99.90;;;;;;5074342;28;20378;-63
2022/09/25 06:11:11;;;;;;;;;;;10.70;99.90;;;;;;5074350;28;20417;-63
2022/09/25 06:13:37;;;;;;;;;;;10.70;99.90;;;;;;5074349;28;19944;-63
2022/09/25 06:16:04;;;;;;;;;;;10.60;99.90;;;;;;5074220;28;19934;-63
2022/09/25 06:18:30;;;;;;;;;;;10.60;99.90;;;;;;5074154;28;20383;-62
2022/09/25 06:21:04;;;;;;;;;;;10.60;99.90;;;;;;5074142;28;19915;-63
2022/09/25 06:23:29;;;;;;;;;;;10.60;99.90;;;;;;5073930;28;19909;-63
2022/09/25 06:25:59;;;;;;;;;;;10.70;99.90;;;;;;5074128;28;19909;-63
2022/09/25 06:28:24;;;;;;;;;;;10.60;99.90;;;;;;5074083;28;20461;-63
2022/09/25 06:30:50;;;;;;;;;;;10.70;99.90;;;;;;5074075;28;19952;-63
2022/09/25 06:33:15;;;;;;;;;;;10.80;99.90;;;;;;5073550;28;19912;-63
2022/09/25 06:35:42;;;;;;;;;;;10.90;99.90;;;;;;5073731;28;19959;-63
2022/09/25 06:38:07;;;;;;;;;;;11.10;99.90;;;;;;5073997;28;20296;-63
2022/09/25 06:40:33;;;;;;;;;;;12.40;99.90;;;;;;5073889;28;19912;-63
2022/09/25 06:42:59;;;;;;;;;;;13.30;99.90;;;;;;5073637;28;20390;-63
2022/09/25 06:45:25;;;;;;;;;;;13.20;99.90;;;;;;5073612;28;19915;-63
2022/09/25 06:47:56;;;;;;;;;;;13.90;99.90;;;;;;5073878;28;19931;-63
2022/09/25 06:50:24;;;;;;;;;;;14.30;99.90;;;;;;5073531;28;19913;-63
2022/09/25 06:52:50;;;;;;;;;;;13.80;99.90;;;;;;5073810;28;19908;-63
2022/09/25 06:55:15;;;;;;;;;;;13.50;99.90;;;;;;5073548;28;19908;-63
2022/09/25 06:57:41;;;;;;;;;;;13.30;99.90;;;;;;5073526;28;19944;-64
2022/09/25 07:00:06;;;;;;;;;;;14.00;99.90;;;;;;5073294;28;19927;-63
2022/09/25 07:05:17;;;;;;;;;;;15.70;99.90;;;;;;5073284;28;20005;-64
2022/09/25 07:07:43;;;;;;;;;;;16.20;99.90;;;;;;5073660;28;20375;-64
2022/09/25 07:10:09;;;;;;;;;;;16.80;99.90;;;;;;5073671;28;20350;-64
2022/09/25 07:12:35;;;;;;;;;;;17.40;99.90;;;;;;5073711;28;19944;-64
2022/09/25 07:15:01;;;;;;;;;;;16.80;99.90;;;;;;5073584;28;19909;-63
2022/09/25 07:17:26;;;;;;;;;;;15.80;99.90;;;;;;5073350;28;19908;-63
2022/09/25 07:19:51;;;;;;;;;;;15.10;99.90;;;;;;5073212;28;19957;-63
2022/09/25 07:22:17;;;;;;;;;;;14.60;99.90;;;;;;5073330;28;19970;-63
2022/09/25 07:24:43;;;;;;;;;;;14.10;99.90;;;;;;5073506;28;20351;-63
2022/09/25 07:27:08;;;;;;;;;;;14.10;99.90;;;;;;5073495;28;19962;-63
2022/09/25 07:29:34;;;;;;;;;;;14.30;99.90;;;;;;5073170;28;19916;-63
2022/09/25 07:32:00;;;;;;;;;;;14.10;99.90;;;;;;5073194;28;19908;-63
2022/09/25 07:34:25;;;;;;;;;;;14.40;99.90;;;;;;5073426;28;19909;-64
2022/09/25 07:36:53;;;;;;;;;;;15.60;99.90;;;;;;5073401;28;19915;-64
2022/09/25 07:39:18;;;;;;;;;;;16.30;99.90;;;;;;5073283;28;19916;-64
2022/09/25 07:41:44;;;;;;;;;;;17.80;99.90;;;;;;5073341;28;20035;-64
2022/09/25 07:44:09;;;;;;;;;;;18.60;99.90;;;;;;5073334;28;19958;-63
2022/09/25 07:46:35;;;;;;;;;;;18.60;99.90;;;;;;5075473;28;19948;-64
2022/09/25 07:49:01;;;;;;;;;;;18.90;99.90;;;;;;5076999;28;19909;-64
2022/09/25 07:51:26;;;;;;;;;;;19.30;99.90;;;;;;5077023;28;19908;-64
2022/09/25 07:53:52;;;;;;;;;;;19.70;99.90;;;;;;5076941;28;19912;-64
2022/09/25 07:56:17;;;;;;;;;;;19.80;99.90;;;;;;5076868;28;19908;-64
2022/09/25 07:58:44;;;;;;;;;;;20.00;99.90;;;;;;5076543;28;19923;-63
2022/09/25 08:01:11;;;;;;;;;;;19.50;99.90;;;;;;5076861;28;20364;-64
2022/09/25 08:03:36;;;;;;;;;;;20.30;99.90;;;;;;5076839;28;20007;-64
2022/09/25 08:06:03;;;;;;;;;;;20.50;99.90;;;;;;5076749;28;19955;-65
2022/09/25 08:08:29;;;;;;;;;;;21.40;99.90;;;;;;5076718;28;19958;-64
2022/09/25 08:11:00;;;;;;;;;;;21.30;99.90;;;;;;5076682;28;20302;-64
2022/09/25 08:13:25;;;;;;;;;;;21.40;99.90;;;;;;5076601;28;20359;-64
2022/09/25 08:15:51;;;;;;;;;;;21.80;99.90;;;;;;5076585;28;19959;-62
2022/09/25 08:18:16;;;;;;;;;;;22.10;99.90;;;;;;5076535;28;19912;-64
2022/09/25 08:20:42;;;;;;;;;;;21.20;99.90;;;;;;5076417;28;20405;-64
2022/09/25 08:23:08;;;;;;;;;;;21.30;99.90;;;;;;5076217;28;20397;-64
2022/09/25 08:25:33;;;;;;;;;;;21.30;99.90;;;;;;5076445;28;19915;-64
2022/09/25 08:27:59;;;;;;;;;;;20.10;99.90;;;;;;5076123;28;19909;-64
2022/09/25 08:30:24;;;;;;;;;;;19.60;99.90;;;;;;5058480;28;20010;-64
2022/09/25 08:32:51;;;;;;;;;;;18.80;99.90;;;;;;5076271;28;20426;-63
2022/09/25 08:35:16;;;;;;;;;;;18.90;99.90;;;;;;5076169;28;20409;-63
2022/09/25 08:37:43;;;;;;;;;;;19.50;99.90;;;;;;5076138;28;19909;-63
2022/09/25 08:40:25;;;;;;;;;;;19.90;99.90;;;;;;5076073;28;19912;-63
2022/09/25 08:42:52;;;;;;;;;;;19.70;99.90;;;;;;5076081;28;19909;-63
2022/09/25 08:51:04;;;;;;;;;;;21.70;99.90;;;;;;5075566;28;19920;-64
2022/09/25 08:53:29;;;;;;;;;;;21.10;99.90;;;;;;5075904;28;20287;-64
2022/09/25 08:56:26;;;;;;;;;;;20.70;99.90;;;;;;5075580;28;20014;-63
2022/09/25 08:58:43;;;;;;;;;;;20.50;99.90;;;;;;5075110;28;19924;-64
2022/09/25 09:01:12;;;;;;;;;;;20.70;99.90;;;;;;5075734;28;20290;-64
2022/09/25 09:03:43;;;;;;;;;;;21.10;99.90;;;;;;5075435;28;19908;-63
2022/09/25 09:06:11;;;;;;;;;;;19.70;99.90;;;;;;5057428;28;19912;-64
2022/09/25 09:08:38;;;;;;;;;;;18.60;99.90;;;;;;5075341;28;19908;-63
2022/09/25 09:11:07;;;;;;;;;;;18.50;99.90;;;;;;5075553;28;19913;-63
2022/09/25 09:13:47;;;;;;;;;;;19.40;99.90;;;;;;5075184;28;19908;-63
2022/09/25 09:16:18;;;;;;;;;;;20.50;99.90;;;;;;5075433;28;19999;-64
2022/09/25 09:18:43;;;;;;;;;;;21.40;99.90;;;;;;5075094;28;20025;-64
2022/09/25 09:21:13;;;;;;;;;;;21.40;99.90;;;;;;5075328;28;19951;-63
2022/09/25 09:23:59;;;;;;;;;;;20.50;99.90;;;;;;5074980;28;20007;-64
2022/09/25 09:26:33;;;;;;;;;;;20.30;99.90;;;;;;5074886;28;19909;-63
2022/09/25 09:29:18;;;;;;;;;;;21.20;99.90;;;;;;5075142;28;20025;-63
2022/09/25 09:31:52;;;;;;;;;;;21.30;99.90;;;;;;5074660;28;19914;-64
2022/09/25 09:34:24;;;;;;;;;;;19.90;99.90;;;;;;5074692;28;20272;-63
2022/09/25 09:36:56;;;;;;;;;;;18.80;99.90;;;;;;5075024;28;19915;-64
2022/09/25 09:39:41;;;;;;;;;;;18.60;99.90;;;;;;5074586;28;19913;-64
2022/09/25 09:42:13;;;;;;;;;;;18.00;99.90;;;;;;5075258;28;19915;-64
2022/09/25 09:44:59;;;;;;;;;;;17.50;99.90;;;;;;5074877;28;20015;-64
2022/09/25 09:47:38;;;;;;;;;;;17.80;99.90;;;;;;5074446;28;20321;-64
2022/09/25 09:50:23;;;;;;;;;;;18.60;99.90;;;;;;5057704;28;20398;-65
2022/09/25 09:52:54;;;;;;;;;;;19.20;99.90;;;;;;5074308;28;20396;-64
2022/09/25 09:55:23;;;;;;;;;;;19.20;99.90;;;;;;5074427;28;19916;-64
2022/09/25 09:57:51;;;;;;;;;;;19.30;99.90;;;;;;5074552;28;20240;-64
2022/09/25 10:00:18;;;;;;;;;;;20.40;99.90;;;;;;5074051;28;19945;-64
2022/09/25 10:02:51;;;;;;;;;;;21.00;99.90;;;;;;5074483;28;19909;-64
2022/09/25 10:05:23;;;;;;;;;;;21.70;99.90;;;;;;5074211;28;19959;-64
2022/09/25 10:07:49;;;;;;;;;;;21.90;99.90;;;;;;5074415;28;19937;-64
2022/09/25 10:10:15;;;;;;;;;;;20.90;99.90;;;;;;5073985;28;20298;-64
2022/09/25 10:12:43;;;;;;;;;;;21.10;99.90;;;;;;5074108;28;20329;-64
2022/09/25 10:15:16;;;;;;;;;;;21.50;99.90;;;;;;5074326;28;19908;-64
2022/09/25 10:17:42;;;;;;;;;;;21.60;99.90;;;;;;5074308;28;20392;-65
2022/09/25 10:20:14;;;;;;;;;;;21.00;99.90;;;;;;5074231;28;20011;-62
2022/09/25 10:22:41;;;;;;;;;;;19.00;99.90;;;;;;5074040;28;19934;-63
2022/09/25 10:25:07;;;;;;;;;;;18.10;99.90;;;;;;5073930;28;19940;-64
2022/09/25 10:27:35;;;;;;;;;;;17.70;99.90;;;;;;5073875;28;19915;-62
2022/09/25 10:30:11;;;;;;;;;;;17.10;99.90;;;;;;5074144;28;19963;-63
2022/09/25 10:32:45;;;;;;;;;;;17.90;99.90;;;;;;5073821;28;20367;-64
2022/09/25 10:35:18;;;;;;;;;;;19.20;99.90;;;;;;5073863;28;20371;-63
2022/09/25 10:37:46;;;;;;;;;;;20.20;99.90;;;;;;5074016;28;20282;-63
2022/09/25 10:40:32;;;;;;;;;;;21.30;99.90;;;;;;5073713;28;20007;-63
2022/09/25 10:43:01;;;;;;;;;;;22.50;99.90;;;;;;5055674;28;19948;-63
2022/09/25 10:45:29;;;;;;;;;;;22.60;99.20;;;;;;5073922;28;20367;-64
2022/09/25 10:50:41;;;;;;;;;;;20.30;99.90;;;;;;5073347;28;19909;-62
2022/09/25 10:53:27;;;;;;;;;;;19.10;99.90;;;;;;5073587;28;19915;-62
2022/09/25 10:55:55;;;;;;;;;;;19.00;99.90;;;;;;5073497;28;20012;-62
2022/09/25 10:58:27;;;;;;;;;;;18.70;99.90;;;;;;5073318;28;20124;-62
2022/09/25 11:00:54;;;;;;;;;;;19.20;99.90;;;;;;5073683;28;19919;-62
2022/09/25 11:03:29;;;;;;;;;;;19.70;99.90;;;;;;5073722;28;20362;-63
2022/09/25 11:05:56;;;;;;;;;;;20.40;99.90;;;;;;5073678;28;19908;-64
2022/09/25 11:08:25;;;;;;;;;;;20.40;99.90;;;;;;5038954;28;20287;-62
2022/09/25 11:10:52;;;;;;;;;;;20.10;99.90;;;;;;5073660;28;19999;-62
2022/09/25 11:13:23;;;;;;;;;;;20.50;99.90;;;;;;5073603;28;19908;-62
2022/09/25 11:15:52;;;;;;;;;;;20.20;99.90;;;;;;5073614;28;19923;-62
2022/09/25 11:18:34;;;;;;;;;;;20.20;99.90;;;;;;5073576;28;20013;-62
2022/09/25 11:21:01;;;;;;;;;;;19.90;99.90;;;;;;5074746;28;19912;-62
2022/09/25 11:23:33;;;;;;;;;;;19.40;99.90;;;;;;5077210;28;19915;-62
2022/09/25 11:26:05;;;;;;;;;;;18.80;99.90;;;;;;5077535;28;20362;-62
2022/09/25 11:28:51;;;;;;;;;;;18.20;99.90;;;;;;5077239;28;19940;-62
2022/09/25 11:31:28;;;;;;;;;;;17.90;99.90;;;;;;5077132;28;19915;-62
2022/09/25 11:34:10;;;;;;;;;;;17.50;99.90;;;;;;5077095;28;19963;-62
2022/09/25 11:42:17;;;;;;;;;;;17.80;99.90;;;;;;5070911;28;19913;-64
2022/09/25 11:44:56;;;;;;;;;;;18.30;99.90;;;;;;5070864;28;19916;-64
2022/09/25 11:47:25;;;;;;;;;;;18.70;99.90;;;;;;5070855;28;19909;-64
2022/09/25 11:49:53;;;;;;;;;;;19.00;99.90;;;;;;5070703;28;19908;-64
2022/09/25 11:52:26;;;;;;;;;;;19.10;99.90;;;;;;5070961;28;19909;-63
2022/09/25 11:55:01;;;;;;;;;;;19.30;99.90;;;;;;5070980;28;20268;-62
2022/09/25 12:00:13;;;;;;;;;;;18.50;99.90;;;;;;5071138;28;20375;-63
2022/09/25 12:02:57;;;;;;;;;;;18.40;99.90;;;;;;5069709;28;19912;-64
2022/09/25 12:05:31;;;;;;;;;;;18.50;99.90;;;;;;5070758;28;19909;-63
2022/09/25 12:10:49;;;;;;;;;;;19.20;99.90;;;;;;5091217;27;19912;-63
2022/09/25 12:13:23;;;;;;;;;;;18.70;99.90;;;;;;5091186;28;20401;-64
2022/09/25 12:16:09;;;;;;;;;;;18.50;99.90;;;;;;5091333;28;19908;-62
2022/09/25 12:18:46;;;;;;;;;;;18.10;99.90;;;;;;5091050;28;19912;-63
2022/09/25 12:21:16;;;;;;;;;;;17.80;99.90;;;;;;5091301;28;20352;-63
2022/09/25 12:23:46;;;;;;;;;;;17.60;99.90;;;;;;5091230;28;19908;-64
2022/09/25 12:26:17;;;;;;;;;;;17.60;99.90;;;;;;5091170;28;19909;-64
2022/09/25 12:28:51;;;;;;;;;;;18.10;99.90;;;;;;5090878;28;19919;-62
2022/09/25 12:31:38;;;;;;;;;;;18.30;99.90;;;;;;5091067;28;19908;-62
2022/09/25 12:34:16;;;;;;;;;;;18.50;99.90;;;;;;5090728;28;19916;-66
2022/09/25 12:36:46;;;;;;;;;;;18.90;99.90;;;;;;5090801;28;19908;-65
2022/09/25 12:39:23;;;;;;;;;;;19.30;99.90;;;;;;5090928;28;19957;-64
2022/09/25 12:41:53;;;;;;;;;;;19.30;99.90;;;;;;5090963;28;20363;-67
2022/09/25 12:44:22;;;;;;;;;;;19.40;99.70;;;;;;5090831;28;19915;-67
2022/09/25 12:46:52;;;;;;;;;;;19.50;97.60;;;;;;5090646;28;19909;-65
2022/09/25 12:49:37;;;;;;;;;;;19.50;97.70;;;;;;5090634;28;20003;-65
2022/09/25 12:52:11;;;;;;;;;;;19.70;97.70;;;;;;5090512;28;19931;-67
2022/09/25 12:54:55;;;;;;;;;;;19.40;96.80;;;;;;5090628;28;20046;-66
2022/09/25 12:57:25;;;;;;;;;;;19.40;99.00;;;;;;5090342;28;19912;-65
2022/09/25 12:59:54;;;;;;;;;;;19.10;98.40;;;;;;5122846;28;20385;-65
2022/09/25 13:02:32;;;;;;;;;;;18.50;98.80;;;;;;5090462;28;19915;-65
2022/09/25 13:05:18;;;;;;;;;;;18.90;99.80;;;;;;5090422;28;20309;-65
2022/09/25 13:07:48;;;;;;;;;;;19.00;98.50;;;;;;5090177;28;19919;-64
2022/09/25 13:10:20;;;;;;;;;;;18.50;97.00;;;;;;5106612;28;19931;-65
2022/09/25 13:12:46;;;;;;;;;;;18.30;98.10;;;;;;5110332;28;19908;-65
2022/09/25 13:15:15;;;;;;;;;;;18.60;97.30;;;;;;5110614;28;19995;-65
2022/09/25 13:17:40;;;;;;;;;;;18.80;95.20;;;;;;5110607;28;19908;-65
2022/09/25 13:20:26;;;;;;;;;;;18.70;95.50;;;;;;5107739;28;19931;-62
2022/09/25 13:22:57;;;;;;;;;;;18.70;95.20;;;;;;5096525;28;19991;-63
2022/09/25 13:25:24;;;;;;;;;;;18.30;97.70;;;;;;5096536;28;19908;-63
2022/09/25 13:27:53;;;;;;;;;;;18.10;98.60;;;;;;5096658;28;19908;-63
2022/09/25 13:30:19;;;;;;;;;;;18.40;99.10;;;;;;5096607;28;19919;-62
2022/09/25 13:32:49;;;;;;;;;;;18.60;97.20;;;;;;5096660;28;19908;-63
2022/09/25 13:35:16;;;;;;;;;;;18.80;98.10;;;;;;5096254;28;20431;-61
2022/09/25 13:37:42;;;;;;;;;;;18.70;95.70;;;;;;5096603;28;19916;-62
2022/09/25 13:40:46;;;;;;;;;;;18.80;97.10;;;;;;5096274;28;19908;-63
2022/09/25 13:43:21;;;;;;;;;;;19.00;96.80;;;;;;5096045;28;19915;-62
2022/09/25 13:45:47;;;;;;;;;;;18.90;94.00;;;;;;5096116;28;19908;-63
2022/09/25 13:48:33;;;;;;;;;;;19.10;95.60;;;;;;5096444;28;20286;-62
2022/09/25 13:51:18;;;;;;;;;;;19.30;93.10;;;;;;5096000;28;19913;-63
2022/09/25 13:54:04;;;;;;;;;;;19.10;94.90;;;;;;5095927;28;19912;-64
2022/09/25 14:01:50;;;;;;;;;;;19.20;96.40;;;;;;5071064;28;19919;-63
2022/09/25 14:04:23;;;;;;;;;;;19.20;96.30;;;;;;5071211;28;19915;-64
2022/09/25 14:06:52;;;;;;;;;;;19.10;96.30;;;;;;5071146;28;20255;-63
2022/09/25 14:09:20;;;;;;;;;;;19.20;98.00;;;;;;5071099;28;19919;-63
2022/09/25 14:11:50;;;;;;;;;;;19.30;96.90;;;;;;5071080;28;19908;-64
2022/09/25 14:14:24;;;;;;;;;;;19.30;96.40;;;;;;5070719;28;19971;-64
2022/09/25 14:16:51;;;;;;;;;;;19.20;96.80;;;;;;5086545;28;19909;-64
2022/09/25 14:19:19;;;;;;;;;;;19.30;97.30;;;;;;5070824;28;19916;-64
2022/09/25 14:21:46;;;;;;;;;;;19.30;97.50;;;;;;5070925;28;19916;-63
2022/09/25 14:24:19;;;;;;;;;;;19.10;94.90;;;;;;5070839;28;19916;-63
2022/09/25 14:26:44;;;;;;;;;;;19.00;94.80;;;;;;5070703;28;20050;-63
2022/09/25 14:29:15;;;;;;;;;;;19.10;94.60;;;;;;5070689;28;19940;-63
2022/09/25 14:32:00;;;;;;;;;;;19.00;93.90;;;;;;5070645;28;19915;-63
2022/09/25 14:34:46;;;;;;;;;;;18.90;94.20;;;;;;5070389;28;19916;-62
2022/09/25 14:37:32;;;;;;;;;;;18.60;94.70;;;;;;5070368;28;19912;-63
2022/09/25 14:40:18;;;;;;;;;;;18.40;95.90;;;;;;5068815;28;19938;-62
2022/09/25 14:42:49;;;;;;;;;;;18.40;96.90;;;;;;5070281;28;19982;-64
2022/09/25 14:45:34;;;;;;;;;;;18.10;98.20;;;;;;5070225;28;19909;-62
2022/09/25 14:48:02;;;;;;;;;;;17.80;99.00;;;;;;5070062;28;19908;-62
2022/09/25 14:50:30;;;;;;;;;;;17.70;98.90;;;;;;5068738;28;19955;-63
2022/09/25 14:52:58;;;;;;;;;;;17.50;99.90;;;;;;5069931;28;19912;-63
2022/09/25 14:55:25;;;;;;;;;;;17.30;99.90;;;;;;5068588;28;19916;-62
2022/09/25 14:57:51;;;;;;;;;;;17.20;99.90;;;;;;5070099;28;19909;-63
2022/09/25 15:00:19;;;;;;;;;;;17.00;99.90;;;;;;5077682;28;19959;-63
2022/09/25 15:02:45;;;;;;;;;;;16.90;99.90;;;;;;5090311;28;19915;-63
2022/09/25 15:05:28;;;;;;;;;;;16.80;99.90;;;;;;5090347;28;19908;-62
2022/09/25 15:07:57;;;;;;;;;;;16.70;99.90;;;;;;5090158;28;19908;-62
2022/09/25 15:10:27;;;;;;;;;;;16.70;99.90;;;;;;5090177;28;20016;-63